Skip Navigation LinksHome page > Weather > Current weather Skip Navigation Links

Current Weather

La Guardia, New York

For information only: do not use for flight planning or navigation.
Latest weather
Observation time Friday, May 29, 2020 5:51 PM EDT
Local time Friday, May 29, 2020 6:04 PM EDT
Flight conditions Visual Meteorological Conditions
Winds
Wind direction South (180°)
Wind speed 16 mph
Wind gusting to 23 mph
Visibility 10 mi.
Sky condition
Ceiling 25,000 ft. broken clouds
Cloud layer few clouds 3,500 ft.
Cloud layer scattered clouds 14,000 ft.
Cloud layer broken clouds 25,000 ft.
Temperature 80°F
Dewpoint 66°F
Altimeter 29.87 in.Hg
Derived measurements
Relative humidity 62%
Heat index 82°F
Density altitude 1728 ft.
Sea-level pressure 29.87 in.Hg
Remarks
Automated weather observing station with precipitation discriminator.
METAR KLGA 292151Z 18014G20KT 10SM FEW035 SCT140 BKN250 27/19 A2987 RMK AO2 SLP116 T02670189

Settings

Location code

InnerDrive.Weather 4.0.6770.0 Release CLR 4.0.30319.42000
Copyright ©2018 Inner Drive Technology. All rights reserved. Portions Copyright ©1986-2018 David Braverman.

Find weather

Site navigation


Skip Navigation Links

Place info

Page info

PayPal - The safer, easier way to pay online!

Return home.

Copyright ©2020 Inner Drive Technology. Purveyors of fine, hand-crafted computer software. Page printed 2020-05-29T22:04:30 UTC.